sensor_id;sensor_type;location;lat;lon;timestamp;temperature;humidity
10062;DHT22;5070;52.382;5.270;2022-08-24T00:00:39;26.60;82.30
10062;DHT22;5070;52.382;5.270;2022-08-24T00:03:07;26.60;82.40
10062;DHT22;5070;52.382;5.270;2022-08-24T00:05:37;26.60;82.50
10062;DHT22;5070;52.382;5.270;2022-08-24T00:08:06;26.60;82.40
10062;DHT22;5070;52.382;5.270;2022-08-24T00:10:34;26.60;82.40
10062;DHT22;5070;52.382;5.270;2022-08-24T00:13:03;26.60;82.20
10062;DHT22;5070;52.382;5.270;2022-08-24T00:15:31;26.60;82.30
10062;DHT22;5070;52.382;5.270;2022-08-24T00:18:00;26.60;82.00
10062;DHT22;5070;52.382;5.270;2022-08-24T00:20:29;26.60;81.90
10062;DHT22;5070;52.382;5.270;2022-08-24T00:22:57;26.60;82.20
10062;DHT22;5070;52.382;5.270;2022-08-24T00:25:24;26.60;82.00
10062;DHT22;5070;52.382;5.270;2022-08-24T00:27:52;26.60;82.00
10062;DHT22;5070;52.382;5.270;2022-08-24T00:30:22;26.50;82.00
10062;DHT22;5070;52.382;5.270;2022-08-24T00:32:51;26.50;82.10
10062;DHT22;5070;52.382;5.270;2022-08-24T00:35:20;26.50;82.10
10062;DHT22;5070;52.382;5.270;2022-08-24T00:37:49;26.50;82.00
10062;DHT22;5070;52.382;5.270;2022-08-24T00:40:20;26.50;82.10
10062;DHT22;5070;52.382;5.270;2022-08-24T00:42:48;26.50;81.90
10062;DHT22;5070;52.382;5.270;2022-08-24T00:45:18;26.50;81.90
10062;DHT22;5070;52.382;5.270;2022-08-24T00:47:55;26.50;82.60
10062;DHT22;5070;52.382;5.270;2022-08-24T00:50:31;26.50;82.00
10062;DHT22;5070;52.382;5.270;2022-08-24T00:53:04;26.50;82.00
10062;DHT22;5070;52.382;5.270;2022-08-24T00:55:36;26.50;82.00
10062;DHT22;5070;52.382;5.270;2022-08-24T00:58:08;26.50;82.00
10062;DHT22;5070;52.382;5.270;2022-08-24T01:00:45;26.50;81.70
10062;DHT22;5070;52.382;5.270;2022-08-24T01:03:16;26.50;81.80
10062;DHT22;5070;52.382;5.270;2022-08-24T01:05:45;26.50;82.00
10062;DHT22;5070;52.382;5.270;2022-08-24T01:08:14;26.40;81.60
10062;DHT22;5070;52.382;5.270;2022-08-24T01:10:44;26.40;81.50
10062;DHT22;5070;52.382;5.270;2022-08-24T01:13:14;26.40;81.90
10062;DHT22;5070;52.382;5.270;2022-08-24T01:15:45;26.40;81.90
10062;DHT22;5070;52.382;5.270;2022-08-24T01:18:18;26.40;81.90
10062;DHT22;5070;52.382;5.270;2022-08-24T01:21:10;26.40;81.80
10062;DHT22;5070;52.382;5.270;2022-08-24T01:23:45;26.40;81.60
10062;DHT22;5070;52.382;5.270;2022-08-24T01:26:16;26.40;81.60
10062;DHT22;5070;52.382;5.270;2022-08-24T01:28:48;26.30;81.50
10062;DHT22;5070;52.382;5.270;2022-08-24T01:31:19;26.30;81.50
10062;DHT22;5070;52.382;5.270;2022-08-24T01:33:49;26.30;81.40
10062;DHT22;5070;52.382;5.270;2022-08-24T01:36:21;26.30;81.40
10062;DHT22;5070;52.382;5.270;2022-08-24T01:38:57;26.30;81.30
10062;DHT22;5070;52.382;5.270;2022-08-24T01:41:27;26.30;81.30
10062;DHT22;5070;52.382;5.270;2022-08-24T01:43:57;26.30;81.30
10062;DHT22;5070;52.382;5.270;2022-08-24T01:46:27;26.30;81.30
10062;DHT22;5070;52.382;5.270;2022-08-24T01:48:55;26.30;81.20
10062;DHT22;5070;52.382;5.270;2022-08-24T01:51:25;26.30;81.10
10062;DHT22;5070;52.382;5.270;2022-08-24T01:53:57;26.30;81.20
10062;DHT22;5070;52.382;5.270;2022-08-24T01:56:25;26.20;81.20
10062;DHT22;5070;52.382;5.270;2022-08-24T01:58:56;26.20;81.20
10062;DHT22;5070;52.382;5.270;2022-08-24T02:01:26;26.20;81.10
10062;DHT22;5070;52.382;5.270;2022-08-24T02:03:55;26.20;81.10
10062;DHT22;5070;52.382;5.270;2022-08-24T02:06:24;26.20;81.20
10062;DHT22;5070;52.382;5.270;2022-08-24T02:08:53;26.20;81.20
10062;DHT22;5070;52.382;5.270;2022-08-24T02:11:22;26.10;81.10
10062;DHT22;5070;52.382;5.270;2022-08-24T02:13:50;26.10;81.20
10062;DHT22;5070;52.382;5.270;2022-08-24T02:16:18;26.10;81.10
10062;DHT22;5070;52.382;5.270;2022-08-24T02:18:47;26.10;81.10
10062;DHT22;5070;52.382;5.270;2022-08-24T02:21:16;26.10;81.00
10062;DHT22;5070;52.382;5.270;2022-08-24T02:23:45;26.10;80.90
10062;DHT22;5070;52.382;5.270;2022-08-24T02:26:13;26.10;81.00
10062;DHT22;5070;52.382;5.270;2022-08-24T02:28:44;26.10;81.10
10062;DHT22;5070;52.382;5.270;2022-08-24T02:31:13;26.10;81.20
10062;DHT22;5070;52.382;5.270;2022-08-24T02:33:43;26.10;81.10
10062;DHT22;5070;52.382;5.270;2022-08-24T02:36:12;26.00;80.90
10062;DHT22;5070;52.382;5.270;2022-08-24T02:38:54;26.00;81.00
10062;DHT22;5070;52.382;5.270;2022-08-24T02:41:22;26.00;81.00
10062;DHT22;5070;52.382;5.270;2022-08-24T02:43:55;26.00;81.10
10062;DHT22;5070;52.382;5.270;2022-08-24T02:46:25;26.00;81.10
10062;DHT22;5070;52.382;5.270;2022-08-24T02:48:54;25.90;81.10
10062;DHT22;5070;52.382;5.270;2022-08-24T02:51:37;25.90;81.30
10062;DHT22;5070;52.382;5.270;2022-08-24T02:54:13;25.90;81.20
10062;DHT22;5070;52.382;5.270;2022-08-24T02:56:44;25.90;81.30
10062;DHT22;5070;52.382;5.270;2022-08-24T02:59:14;25.90;81.00
10062;DHT22;5070;52.382;5.270;2022-08-24T03:01:42;25.90;81.10
10062;DHT22;5070;52.382;5.270;2022-08-24T03:04:11;25.90;81.00
10062;DHT22;5070;52.382;5.270;2022-08-24T03:06:39;25.90;81.00
10062;DHT22;5070;52.382;5.270;2022-08-24T03:09:07;25.90;80.90
10062;DHT22;5070;52.382;5.270;2022-08-24T03:11:36;25.90;81.10
10062;DHT22;5070;52.382;5.270;2022-08-24T03:14:05;25.90;81.00
10062;DHT22;5070;52.382;5.270;2022-08-24T03:16:37;25.90;80.90
10062;DHT22;5070;52.382;5.270;2022-08-24T03:19:06;25.90;80.90
10062;DHT22;5070;52.382;5.270;2022-08-24T03:21:35;25.80;80.90
10062;DHT22;5070;52.382;5.270;2022-08-24T03:24:04;25.80;81.10
10062;DHT22;5070;52.382;5.270;2022-08-24T03:26:32;25.80;81.30
10062;DHT22;5070;52.382;5.270;2022-08-24T03:29:00;25.80;81.30
10062;DHT22;5070;52.382;5.270;2022-08-24T03:31:31;25.80;81.20
10062;DHT22;5070;52.382;5.270;2022-08-24T03:34:00;25.80;81.10
10062;DHT22;5070;52.382;5.270;2022-08-24T03:36:28;25.80;81.20
10062;DHT22;5070;52.382;5.270;2022-08-24T03:38:56;25.70;81.20
10062;DHT22;5070;52.382;5.270;2022-08-24T03:41:24;25.70;81.10
10062;DHT22;5070;52.382;5.270;2022-08-24T03:43:53;25.70;81.20
10062;DHT22;5070;52.382;5.270;2022-08-24T03:46:25;25.70;81.30
10062;DHT22;5070;52.382;5.270;2022-08-24T03:48:56;25.70;81.30
10062;DHT22;5070;52.382;5.270;2022-08-24T03:51:27;25.70;81.40
10062;DHT22;5070;52.382;5.270;2022-08-24T03:53:57;25.70;81.40
10062;DHT22;5070;52.382;5.270;2022-08-24T03:56:28;25.70;81.30
10062;DHT22;5070;52.382;5.270;2022-08-24T03:58:56;25.70;81.30
10062;DHT22;5070;52.382;5.270;2022-08-24T04:01:28;25.70;81.20
10062;DHT22;5070;52.382;5.270;2022-08-24T04:03:57;25.60;81.10
10062;DHT22;5070;52.382;5.270;2022-08-24T04:06:31;25.70;81.10
10062;DHT22;5070;52.382;5.270;2022-08-24T04:08:59;25.60;81.10
10062;DHT22;5070;52.382;5.270;2022-08-24T04:11:32;25.60;81.10
10062;DHT22;5070;52.382;5.270;2022-08-24T04:14:06;25.60;81.20
10062;DHT22;5070;52.382;5.270;2022-08-24T04:16:55;25.60;81.30
10062;DHT22;5070;52.382;5.270;2022-08-24T04:19:30;25.60;81.50
10062;DHT22;5070;52.382;5.270;2022-08-24T04:22:00;25.60;81.50
10062;DHT22;5070;52.382;5.270;2022-08-24T04:24:28;25.50;81.60
10062;DHT22;5070;52.382;5.270;2022-08-24T04:26:57;25.50;81.60
10062;DHT22;5070;52.382;5.270;2022-08-24T04:29:25;25.50;81.50
10062;DHT22;5070;52.382;5.270;2022-08-24T04:31:54;25.50;81.10
10062;DHT22;5070;52.382;5.270;2022-08-24T04:34:22;25.50;80.90
10062;DHT22;5070;52.382;5.270;2022-08-24T04:36:51;25.50;81.10
10062;DHT22;5070;52.382;5.270;2022-08-24T04:39:20;25.50;81.00
10062;DHT22;5070;52.382;5.270;2022-08-24T04:42:10;25.50;81.60
10062;DHT22;5070;52.382;5.270;2022-08-24T04:44:40;25.50;81.00
10062;DHT22;5070;52.382;5.270;2022-08-24T04:47:08;25.40;80.90
10062;DHT22;5070;52.382;5.270;2022-08-24T04:49:37;25.40;80.90
10062;DHT22;5070;52.382;5.270;2022-08-24T04:52:06;25.40;81.10
10062;DHT22;5070;52.382;5.270;2022-08-24T04:54:36;25.40;80.90
10062;DHT22;5070;52.382;5.270;2022-08-24T04:57:16;25.40;81.10
10062;DHT22;5070;52.382;5.270;2022-08-24T04:59:45;25.40;80.90
10062;DHT22;5070;52.382;5.270;2022-08-24T05:02:14;25.40;80.90
10062;DHT22;5070;52.382;5.270;2022-08-24T05:04:45;25.40;81.00
10062;DHT22;5070;52.382;5.270;2022-08-24T05:07:13;25.40;81.20
10062;DHT22;5070;52.382;5.270;2022-08-24T05:09:44;25.40;81.20
10062;DHT22;5070;52.382;5.270;2022-08-24T05:12:12;25.40;81.30
10062;DHT22;5070;52.382;5.270;2022-08-24T05:14:50;25.40;81.30
10062;DHT22;5070;52.382;5.270;2022-08-24T05:17:18;25.30;81.40
10062;DHT22;5070;52.382;5.270;2022-08-24T05:19:46;25.30;81.50
10062;DHT22;5070;52.382;5.270;2022-08-24T05:22:14;25.30;81.60
10062;DHT22;5070;52.382;5.270;2022-08-24T05:24:48;25.30;81.60
10062;DHT22;5070;52.382;5.270;2022-08-24T05:27:18;25.30;81.80
10062;DHT22;5070;52.382;5.270;2022-08-24T05:29:52;25.30;81.80
10062;DHT22;5070;52.382;5.270;2022-08-24T05:32:21;25.30;81.70
10062;DHT22;5070;52.382;5.270;2022-08-24T05:34:51;25.30;81.60
10062;DHT22;5070;52.382;5.270;2022-08-24T05:37:19;25.30;81.80
10062;DHT22;5070;52.382;5.270;2022-08-24T05:40:11;25.30;81.80
10062;DHT22;5070;52.382;5.270;2022-08-24T05:42:42;25.30;82.00
10062;DHT22;5070;52.382;5.270;2022-08-24T05:45:11;25.30;81.80
10062;DHT22;5070;52.382;5.270;2022-08-24T05:47:39;25.40;82.10
10062;DHT22;5070;52.382;5.270;2022-08-24T05:50:26;25.40;82.20
10062;DHT22;5070;52.382;5.270;2022-08-24T05:52:54;25.40;82.30
10062;DHT22;5070;52.382;5.270;2022-08-24T05:55:23;25.30;82.40
10062;DHT22;5070;52.382;5.270;2022-08-24T05:57:51;25.40;82.50
10062;DHT22;5070;52.382;5.270;2022-08-24T06:00:22;25.40;82.50
10062;DHT22;5070;52.382;5.270;2022-08-24T06:02:51;25.40;82.60
10062;DHT22;5070;52.382;5.270;2022-08-24T06:05:20;25.40;82.90
10062;DHT22;5070;52.382;5.270;2022-08-24T06:07:48;25.40;83.10
10062;DHT22;5070;52.382;5.270;2022-08-24T06:10:17;25.40;83.30
10062;DHT22;5070;52.382;5.270;2022-08-24T06:13:04;25.40;83.40
10062;DHT22;5070;52.382;5.270;2022-08-24T06:15:33;25.40;83.40
10062;DHT22;5070;52.382;5.270;2022-08-24T06:18:02;25.40;83.70
10062;DHT22;5070;52.382;5.270;2022-08-24T06:20:31;25.40;83.50
10062;DHT22;5070;52.382;5.270;2022-08-24T06:22:59;25.40;83.20
10062;DHT22;5070;52.382;5.270;2022-08-24T06:25:37;25.40;83.20
10062;DHT22;5070;52.382;5.270;2022-08-24T06:28:25;25.40;83.20
10062;DHT22;5070;52.382;5.270;2022-08-24T06:31:00;25.40;83.60
10062;DHT22;5070;52.382;5.270;2022-08-24T06:33:29;25.40;83.70
10062;DHT22;5070;52.382;5.270;2022-08-24T06:35:57;25.50;83.70
10062;DHT22;5070;52.382;5.270;2022-08-24T06:38:27;25.50;83.50
10062;DHT22;5070;52.382;5.270;2022-08-24T06:40:57;25.50;83.60
10062;DHT22;5070;52.382;5.270;2022-08-24T06:43:27;25.50;83.50
10062;DHT22;5070;52.382;5.270;2022-08-24T06:45:59;25.50;83.40
10062;DHT22;5070;52.382;5.270;2022-08-24T06:48:32;25.50;83.30
10062;DHT22;5070;52.382;5.270;2022-08-24T06:51:00;25.50;83.40
10062;DHT22;5070;52.382;5.270;2022-08-24T06:53:29;25.50;83.80
10062;DHT22;5070;52.382;5.270;2022-08-24T06:55:57;25.50;83.30
10062;DHT22;5070;52.382;5.270;2022-08-24T06:58:29;25.50;83.70
10062;DHT22;5070;52.382;5.270;2022-08-24T07:01:07;25.50;84.20
10062;DHT22;5070;52.382;5.270;2022-08-24T07:03:35;25.50;83.60
10062;DHT22;5070;52.382;5.270;2022-08-24T07:06:18;25.50;83.40
10062;DHT22;5070;52.382;5.270;2022-08-24T07:08:51;25.50;83.70
10062;DHT22;5070;52.382;5.270;2022-08-24T07:11:19;25.50;84.00
10062;DHT22;5070;52.382;5.270;2022-08-24T07:13:49;25.50;83.50
10062;DHT22;5070;52.382;5.270;2022-08-24T07:16:18;25.60;83.70
10062;DHT22;5070;52.382;5.270;2022-08-24T07:18:51;25.60;83.70
10062;DHT22;5070;52.382;5.270;2022-08-24T07:21:20;25.60;83.70
10062;DHT22;5070;52.382;5.270;2022-08-24T07:23:54;25.60;83.60
10062;DHT22;5070;52.382;5.270;2022-08-24T07:26:25;25.60;83.70
10062;DHT22;5070;52.382;5.270;2022-08-24T07:28:57;25.60;84.10
10062;DHT22;5070;52.382;5.270;2022-08-24T07:31:36;25.60;84.10
10062;DHT22;5070;52.382;5.270;2022-08-24T07:34:10;25.60;84.30
10062;DHT22;5070;52.382;5.270;2022-08-24T07:36:39;25.60;84.50
10062;DHT22;5070;52.382;5.270;2022-08-24T07:39:11;25.60;84.40
10062;DHT22;5070;52.382;5.270;2022-08-24T07:41:41;25.60;84.20
10062;DHT22;5070;52.382;5.270;2022-08-24T07:44:31;25.60;84.40
10062;DHT22;5070;52.382;5.270;2022-08-24T07:47:00;25.60;84.40
10062;DHT22;5070;52.382;5.270;2022-08-24T07:49:49;25.60;84.60
10062;DHT22;5070;52.382;5.270;2022-08-24T07:52:18;25.60;84.50
10062;DHT22;5070;52.382;5.270;2022-08-24T07:54:46;25.60;84.30
10062;DHT22;5070;52.382;5.270;2022-08-24T07:57:15;25.60;84.20
10062;DHT22;5070;52.382;5.270;2022-08-24T07:59:45;25.60;84.30
10062;DHT22;5070;52.382;5.270;2022-08-24T08:02:13;25.60;84.20
10062;DHT22;5070;52.382;5.270;2022-08-24T08:04:46;25.60;84.20
10062;DHT22;5070;52.382;5.270;2022-08-24T08:07:18;25.60;84.10
10062;DHT22;5070;52.382;5.270;2022-08-24T08:09:48;25.60;84.10
10062;DHT22;5070;52.382;5.270;2022-08-24T08:12:16;25.60;84.20
10062;DHT22;5070;52.382;5.270;2022-08-24T08:14:55;25.60;83.90
10062;DHT22;5070;52.382;5.270;2022-08-24T08:17:24;25.60;83.90
10062;DHT22;5070;52.382;5.270;2022-08-24T08:19:53;25.60;84.00
10062;DHT22;5070;52.382;5.270;2022-08-24T08:22:24;25.60;84.00
10062;DHT22;5070;52.382;5.270;2022-08-24T08:25:29;25.70;84.10
10062;DHT22;5070;52.382;5.270;2022-08-24T08:28:20;25.70;84.20
10062;DHT22;5070;52.382;5.270;2022-08-24T08:31:04;25.70;84.20
10062;DHT22;5070;52.382;5.270;2022-08-24T08:33:35;25.70;84.20
10062;DHT22;5070;52.382;5.270;2022-08-24T08:36:06;25.70;84.30
10062;DHT22;5070;52.382;5.270;2022-08-24T08:38:48;25.70;84.40
10062;DHT22;5070;52.382;5.270;2022-08-24T08:41:45;25.70;84.40
10062;DHT22;5070;52.382;5.270;2022-08-24T08:44:32;25.70;84.30
10062;DHT22;5070;52.382;5.270;2022-08-24T08:47:20;25.70;84.30
10062;DHT22;5070;52.382;5.270;2022-08-24T08:50:07;25.70;84.40
10062;DHT22;5070;52.382;5.270;2022-08-24T08:52:54;25.70;84.40
10062;DHT22;5070;52.382;5.270;2022-08-24T08:55:31;25.80;84.60
10062;DHT22;5070;52.382;5.270;2022-08-24T08:58:17;25.80;84.80
10062;DHT22;5070;52.382;5.270;2022-08-24T09:00:57;25.80;84.60
10062;DHT22;5070;52.382;5.270;2022-08-24T09:07:03;25.80;84.80
10062;DHT22;5070;52.382;5.270;2022-08-24T09:09:59;25.80;84.90
10062;DHT22;5070;52.382;5.270;2022-08-24T09:12:45;25.80;85.00
10062;DHT22;5070;52.382;5.270;2022-08-24T09:15:37;25.80;85.10
10062;DHT22;5070;52.382;5.270;2022-08-24T09:18:27;25.80;85.10
10062;DHT22;5070;52.382;5.270;2022-08-24T09:21:07;25.80;85.10
10062;DHT22;5070;52.382;5.270;2022-08-24T09:23:47;25.90;85.10
10062;DHT22;5070;52.382;5.270;2022-08-24T09:26:24;25.90;85.10
10062;DHT22;5070;52.382;5.270;2022-08-24T09:29:07;25.90;84.90
10062;DHT22;5070;52.382;5.270;2022-08-24T09:31:48;25.90;84.90
10062;DHT22;5070;52.382;5.270;2022-08-24T09:34:32;25.90;84.90
10062;DHT22;5070;52.382;5.270;2022-08-24T09:37:16;25.90;84.80
10062;DHT22;5070;52.382;5.270;2022-08-24T09:40:00;25.90;84.80
10062;DHT22;5070;52.382;5.270;2022-08-24T09:42:58;25.90;84.80
10062;DHT22;5070;52.382;5.270;2022-08-24T09:46:09;25.90;84.60
10062;DHT22;5070;52.382;5.270;2022-08-24T09:55:31;25.90;84.50
10062;DHT22;5070;52.382;5.270;2022-08-24T09:58:15;26.00;84.60
10062;DHT22;5070;52.382;5.270;2022-08-24T10:00:49;26.00;84.60
10062;DHT22;5070;52.382;5.270;2022-08-24T10:03:27;26.00;84.40
10062;DHT22;5070;52.382;5.270;2022-08-24T10:06:12;26.00;84.30
10062;DHT22;5070;52.382;5.270;2022-08-24T10:09:07;26.00;84.20
10062;DHT22;5070;52.382;5.270;2022-08-24T10:11:44;26.00;84.30
10062;DHT22;5070;52.382;5.270;2022-08-24T10:14:29;26.00;84.20
10062;DHT22;5070;52.382;5.270;2022-08-24T10:17:02;26.10;84.40
10062;DHT22;5070;52.382;5.270;2022-08-24T10:19:47;26.10;84.30
10062;DHT22;5070;52.382;5.270;2022-08-24T10:22:31;26.10;84.20
10062;DHT22;5070;52.382;5.270;2022-08-24T10:25:11;26.10;84.20
10062;DHT22;5070;52.382;5.270;2022-08-24T10:27:52;26.10;84.10
10062;DHT22;5070;52.382;5.270;2022-08-24T10:30:46;26.10;84.20
10062;DHT22;5070;52.382;5.270;2022-08-24T10:33:20;26.10;84.10
10062;DHT22;5070;52.382;5.270;2022-08-24T10:36:12;26.10;84.20
10062;DHT22;5070;52.382;5.270;2022-08-24T10:38:48;26.20;84.20
10062;DHT22;5070;52.382;5.270;2022-08-24T10:42:06;26.20;84.20
10062;DHT22;5070;52.382;5.270;2022-08-24T10:45:16;26.20;84.10
10062;DHT22;5070;52.382;5.270;2022-08-24T10:48:02;26.20;84.10
10062;DHT22;5070;52.382;5.270;2022-08-24T10:50:45;26.20;84.10
10062;DHT22;5070;52.382;5.270;2022-08-24T10:53:23;26.20;84.00
10062;DHT22;5070;52.382;5.270;2022-08-24T10:56:13;26.20;83.90
10062;DHT22;5070;52.382;5.270;2022-08-24T10:59:00;26.30;83.90
10062;DHT22;5070;52.382;5.270;2022-08-24T11:01:33;26.30;83.90
10062;DHT22;5070;52.382;5.270;2022-08-24T11:04:07;26.30;83.80
10062;DHT22;5070;52.382;5.270;2022-08-24T11:06:37;26.30;83.70
10062;DHT22;5070;52.382;5.270;2022-08-24T11:09:09;26.30;83.60
10062;DHT22;5070;52.382;5.270;2022-08-24T11:11:46;26.30;83.40
10062;DHT22;5070;52.382;5.270;2022-08-24T11:14:23;26.30;83.40
10062;DHT22;5070;52.382;5.270;2022-08-24T11:17:13;26.40;83.40
10062;DHT22;5070;52.382;5.270;2022-08-24T11:19:41;26.40;83.30
10062;DHT22;5070;52.382;5.270;2022-08-24T11:22:28;26.40;83.30
10062;DHT22;5070;52.382;5.270;2022-08-24T11:24:58;26.40;83.20
10062;DHT22;5070;52.382;5.270;2022-08-24T11:27:30;26.40;83.10
10062;DHT22;5070;52.382;5.270;2022-08-24T11:30:06;26.40;83.10
10062;DHT22;5070;52.382;5.270;2022-08-24T11:32:42;26.40;83.20
10062;DHT22;5070;52.382;5.270;2022-08-24T11:35:18;26.50;83.60
10062;DHT22;5070;52.382;5.270;2022-08-24T11:37:48;26.50;83.70
10062;DHT22;5070;52.382;5.270;2022-08-24T11:40:20;26.50;83.50
10062;DHT22;5070;52.382;5.270;2022-08-24T11:43:10;26.50;83.40
10062;DHT22;5070;52.382;5.270;2022-08-24T11:45:49;26.50;83.20
10062;DHT22;5070;52.382;5.270;2022-08-24T11:48:33;26.50;83.20
10062;DHT22;5070;52.382;5.270;2022-08-24T11:51:10;26.50;83.50
10062;DHT22;5070;52.382;5.270;2022-08-24T11:53:49;26.60;83.60
10062;DHT22;5070;52.382;5.270;2022-08-24T11:56:24;26.60;83.50
10062;DHT22;5070;52.382;5.270;2022-08-24T11:59:00;26.60;83.40
10062;DHT22;5070;52.382;5.270;2022-08-24T12:01:34;26.60;83.70
10062;DHT22;5070;52.382;5.270;2022-08-24T12:04:30;26.60;83.90
10062;DHT22;5070;52.382;5.270;2022-08-24T12:07:11;26.70;84.20
10062;DHT22;5070;52.382;5.270;2022-08-24T12:10:08;26.70;84.30
10062;DHT22;5070;52.382;5.270;2022-08-24T12:12:45;26.70;84.30
10062;DHT22;5070;52.382;5.270;2022-08-24T12:15:19;26.70;84.10
10062;DHT22;5070;52.382;5.270;2022-08-24T12:17:54;26.70;84.10
10062;DHT22;5070;52.382;5.270;2022-08-24T12:20:29;26.80;84.10
10062;DHT22;5070;52.382;5.270;2022-08-24T12:23:03;26.80;84.30
10062;DHT22;5070;52.382;5.270;2022-08-24T12:25:34;26.80;84.10
10062;DHT22;5070;52.382;5.270;2022-08-24T12:28:25;26.80;84.00
10062;DHT22;5070;52.382;5.270;2022-08-24T12:30:58;26.80;84.10
10062;DHT22;5070;52.382;5.270;2022-08-24T12:33:31;26.80;84.20
10062;DHT22;5070;52.382;5.270;2022-08-24T12:36:12;26.90;84.40
10062;DHT22;5070;52.382;5.270;2022-08-24T12:38:44;26.90;84.20
10062;DHT22;5070;52.382;5.270;2022-08-24T12:41:18;26.90;84.20
10062;DHT22;5070;52.382;5.270;2022-08-24T12:43:50;26.90;84.10
10062;DHT22;5070;52.382;5.270;2022-08-24T12:46:21;26.90;83.90
10062;DHT22;5070;52.382;5.270;2022-08-24T12:48:52;26.90;83.90
10062;DHT22;5070;52.382;5.270;2022-08-24T12:51:27;27.00;83.70
10062;DHT22;5070;52.382;5.270;2022-08-24T12:54:06;27.00;83.50
10062;DHT22;5070;52.382;5.270;2022-08-24T12:57:14;27.00;83.30
10062;DHT22;5070;52.382;5.270;2022-08-24T12:59:54;27.00;83.10
10062;DHT22;5070;52.382;5.270;2022-08-24T13:02:28;27.00;83.00
10062;DHT22;5070;52.382;5.270;2022-08-24T13:05:02;27.00;82.80
10062;DHT22;5070;52.382;5.270;2022-08-24T13:07:38;27.10;82.70
10062;DHT22;5070;52.382;5.270;2022-08-24T13:10:15;27.10;82.40
10062;DHT22;5070;52.382;5.270;2022-08-24T13:13:22;27.10;82.40
10062;DHT22;5070;52.382;5.270;2022-08-24T13:16:07;27.10;82.40
10062;DHT22;5070;52.382;5.270;2022-08-24T13:18:52;27.10;82.50
10062;DHT22;5070;52.382;5.270;2022-08-24T13:21:45;27.10;82.60
10062;DHT22;5070;52.382;5.270;2022-08-24T13:24:42;27.20;82.60
10062;DHT22;5070;52.382;5.270;2022-08-24T13:30:30;27.20;82.20
10062;DHT22;5070;52.382;5.270;2022-08-24T13:33:07;27.20;81.90
10062;DHT22;5070;52.382;5.270;2022-08-24T13:35:57;27.20;81.80
10062;DHT22;5070;52.382;5.270;2022-08-24T13:41:51;27.30;81.70
10062;DHT22;5070;52.382;5.270;2022-08-24T13:44:30;27.20;81.50
10062;DHT22;5070;52.382;5.270;2022-08-24T13:47:10;27.30;81.50
10062;DHT22;5070;52.382;5.270;2022-08-24T13:49:52;27.30;81.40
10062;DHT22;5070;52.382;5.270;2022-08-24T13:52:43;27.30;81.30
10062;DHT22;5070;52.382;5.270;2022-08-24T13:55:31;27.30;81.40
10062;DHT22;5070;52.382;5.270;2022-08-24T13:58:21;27.30;81.30
10062;DHT22;5070;52.382;5.270;2022-08-24T14:00:58;27.30;80.80
10062;DHT22;5070;52.382;5.270;2022-08-24T14:03:52;27.30;80.90
10062;DHT22;5070;52.382;5.270;2022-08-24T14:06:31;27.40;81.10
10062;DHT22;5070;52.382;5.270;2022-08-24T14:09:16;27.40;81.00
10062;DHT22;5070;52.382;5.270;2022-08-24T14:12:01;27.40;80.90
10062;DHT22;5070;52.382;5.270;2022-08-24T14:14:53;27.40;80.80
10062;DHT22;5070;52.382;5.270;2022-08-24T14:17:31;27.40;80.30
10062;DHT22;5070;52.382;5.270;2022-08-24T14:20:53;27.40;80.10
10062;DHT22;5070;52.382;5.270;2022-08-24T14:23:33;27.50;80.00
10062;DHT22;5070;52.382;5.270;2022-08-24T14:29:31;27.50;80.00
10062;DHT22;5070;52.382;5.270;2022-08-24T14:32:27;27.50;80.00
10062;DHT22;5070;52.382;5.270;2022-08-24T14:35:04;27.50;79.90
10062;DHT22;5070;52.382;5.270;2022-08-24T14:37:47;27.50;79.80
10062;DHT22;5070;52.382;5.270;2022-08-24T14:40:27;27.50;79.90
10062;DHT22;5070;52.382;5.270;2022-08-24T14:43:19;27.60;79.90
10062;DHT22;5070;52.382;5.270;2022-08-24T14:46:04;27.60;79.80
10062;DHT22;5070;52.382;5.270;2022-08-24T14:48:45;27.60;79.50
10062;DHT22;5070;52.382;5.270;2022-08-24T14:51:29;27.60;79.70
10062;DHT22;5070;52.382;5.270;2022-08-24T14:54:13;27.70;79.70
10062;DHT22;5070;52.382;5.270;2022-08-24T14:56:52;27.70;79.80
10062;DHT22;5070;52.382;5.270;2022-08-24T14:59:34;27.70;79.80
10062;DHT22;5070;52.382;5.270;2022-08-24T15:02:43;27.80;79.90
10062;DHT22;5070;52.382;5.270;2022-08-24T15:05:21;27.70;79.80
10062;DHT22;5070;52.382;5.270;2022-08-24T15:07:54;27.80;79.70
10062;DHT22;5070;52.382;5.270;2022-08-24T15:10:25;27.80;79.60
10062;DHT22;5070;52.382;5.270;2022-08-24T15:12:58;27.80;79.60
10062;DHT22;5070;52.382;5.270;2022-08-24T15:15:32;27.80;79.60
10062;DHT22;5070;52.382;5.270;2022-08-24T15:18:04;27.90;79.80
10062;DHT22;5070;52.382;5.270;2022-08-24T15:21:07;27.90;80.10
10062;DHT22;5070;52.382;5.270;2022-08-24T15:23:50;27.90;80.10
10062;DHT22;5070;52.382;5.270;2022-08-24T15:26:30;27.90;80.10
10062;DHT22;5070;52.382;5.270;2022-08-24T15:29:08;28.00;80.30
10062;DHT22;5070;52.382;5.270;2022-08-24T15:31:40;28.00;80.70
10062;DHT22;5070;52.382;5.270;2022-08-24T15:34:11;28.00;80.70
10062;DHT22;5070;52.382;5.270;2022-08-24T15:36:40;28.00;80.90
10062;DHT22;5070;52.382;5.270;2022-08-24T15:39:08;28.10;80.80
10062;DHT22;5070;52.382;5.270;2022-08-24T15:41:39;28.10;80.90
10062;DHT22;5070;52.382;5.270;2022-08-24T15:44:13;28.10;80.90
10062;DHT22;5070;52.382;5.270;2022-08-24T15:46:51;28.10;80.60
10062;DHT22;5070;52.382;5.270;2022-08-24T15:49:24;28.10;80.40
10062;DHT22;5070;52.382;5.270;2022-08-24T15:51:57;28.20;80.20
10062;DHT22;5070;52.382;5.270;2022-08-24T15:54:30;28.20;79.60
10062;DHT22;5070;52.382;5.270;2022-08-24T15:57:00;28.20;79.30
10062;DHT22;5070;52.382;5.270;2022-08-24T15:59:31;28.20;78.80
10062;DHT22;5070;52.382;5.270;2022-08-24T16:02:21;28.20;78.50
10062;DHT22;5070;52.382;5.270;2022-08-24T16:05:00;28.20;78.10
10062;DHT22;5070;52.382;5.270;2022-08-24T16:07:33;28.20;78.10
10062;DHT22;5070;52.382;5.270;2022-08-24T16:10:28;28.20;77.80
10062;DHT22;5070;52.382;5.270;2022-08-24T16:13:05;28.20;77.40
10062;DHT22;5070;52.382;5.270;2022-08-24T16:15:33;28.20;77.50
10062;DHT22;5070;52.382;5.270;2022-08-24T16:18:11;28.20;77.60
10062;DHT22;5070;52.382;5.270;2022-08-24T16:20:39;28.30;77.70
10062;DHT22;5070;52.382;5.270;2022-08-24T16:23:11;28.30;77.60
10062;DHT22;5070;52.382;5.270;2022-08-24T16:25:42;28.30;77.70
10062;DHT22;5070;52.382;5.270;2022-08-24T16:28:32;28.30;78.00
10062;DHT22;5070;52.382;5.270;2022-08-24T16:31:02;28.30;78.00
10062;DHT22;5070;52.382;5.270;2022-08-24T16:33:42;28.30;78.20
10062;DHT22;5070;52.382;5.270;2022-08-24T16:36:13;28.30;77.60
10062;DHT22;5070;52.382;5.270;2022-08-24T16:38:47;28.40;77.60
10062;DHT22;5070;52.382;5.270;2022-08-24T16:41:18;28.40;77.70
10062;DHT22;5070;52.382;5.270;2022-08-24T16:43:47;28.40;77.50
10062;DHT22;5070;52.382;5.270;2022-08-24T16:46:19;28.40;77.20
10062;DHT22;5070;52.382;5.270;2022-08-24T16:48:48;28.40;76.90
10062;DHT22;5070;52.382;5.270;2022-08-24T16:51:16;28.40;76.80
10062;DHT22;5070;52.382;5.270;2022-08-24T16:53:45;28.40;76.70
10062;DHT22;5070;52.382;5.270;2022-08-24T16:56:13;28.40;76.80
10062;DHT22;5070;52.382;5.270;2022-08-24T16:58:44;28.40;76.50